createdAt,value
2024-03-02T00:01:53.289Z,20.75
2024-03-02T00:04:22.999Z,17.25
2024-03-02T00:06:56.212Z,19.85
2024-03-02T00:09:26.055Z,22.42
2024-03-02T00:11:56.334Z,20.80
2024-03-02T00:14:28.705Z,25.90
2024-03-02T00:16:58.999Z,24.92
2024-03-02T00:19:28.714Z,20.85
2024-03-02T00:21:58.569Z,17.90
2024-03-02T00:24:30.900Z,21.90
2024-03-02T00:27:00.922Z,19.05
2024-03-02T00:29:33.421Z,24.17
2024-03-02T00:32:08.410Z,21.35
2024-03-02T00:34:38.174Z,17.95
2024-03-02T00:37:07.976Z,21.60
2024-03-02T00:39:37.752Z,19.98
2024-03-02T00:42:07.672Z,21.08
2024-03-02T00:44:39.964Z,23.85
2024-03-02T00:47:09.649Z,23.45
2024-03-02T00:49:41.601Z,16.42
2024-03-02T00:52:11.631Z,19.60
2024-03-02T00:54:41.393Z,20.45
2024-03-02T00:57:14.424Z,17.60
2024-03-02T00:59:47.800Z,19.83
2024-03-02T01:02:17.767Z,19.02
2024-03-02T01:04:47.452Z,18.95
2024-03-02T01:07:17.129Z,19.98
2024-03-02T01:09:46.812Z,20.67
2024-03-02T01:12:16.568Z,24.17
2024-03-02T01:14:48.907Z,17.88
2024-03-02T01:17:21.731Z,22.70
2024-03-02T01:19:51.493Z,18.48
2024-03-02T01:22:26.510Z,19.83
2024-03-02T01:24:56.732Z,21.45
2024-03-02T01:27:26.472Z,17.33
2024-03-02T01:29:58.765Z,21.73
2024-03-02T01:32:28.556Z,19.25
2024-03-02T01:34:58.203Z,18.50
2024-03-02T01:37:27.878Z,19.35
2024-03-02T01:39:57.562Z,23.73
2024-03-02T01:42:27.276Z,23.85
2024-03-02T01:44:59.609Z,24.52
2024-03-02T01:47:29.482Z,19.05
2024-03-02T01:49:59.678Z,19.48
2024-03-02T01:52:29.380Z,22.42
2024-03-02T01:54:59.063Z,21.38
2024-03-02T01:57:28.885Z,22.27
2024-03-02T02:00:01.216Z,20.77
2024-03-02T02:02:31.168Z,17.60
2024-03-02T02:05:00.828Z,20.63
2024-03-02T02:07:30.537Z,18.50
2024-03-02T02:10:00.340Z,19.73
2024-03-02T02:12:30.173Z,19.13
2024-03-02T02:15:02.622Z,21.88
2024-03-02T02:17:32.483Z,21.42
2024-03-02T02:20:02.263Z,21.00
2024-03-02T02:22:34.566Z,16.13
2024-03-02T02:25:04.315Z,17.98
2024-03-02T02:27:33.990Z,20.40
2024-03-02T02:30:04.516Z,20.08
2024-03-02T02:32:34.211Z,15.55
2024-03-02T02:35:03.859Z,18.08
2024-03-02T02:37:36.217Z,21.58
2024-03-02T02:40:06.257Z,19.00
2024-03-02T02:42:36.008Z,15.35
2024-03-02T02:45:05.694Z,16.23
2024-03-02T02:47:36.541Z,15.60
2024-03-02T02:50:06.826Z,17.65
2024-03-02T02:52:40.930Z,15.48
2024-03-02T02:55:12.449Z,16.45
2024-03-02T02:57:44.704Z,18.10
2024-03-02T03:00:16.585Z,19.15
2024-03-02T03:02:49.248Z,18.58
2024-03-02T03:05:19.737Z,19.10
2024-03-02T03:07:52.518Z,22.90
2024-03-02T03:10:24.526Z,25.33
2024-03-02T03:12:54.673Z,24.65
2024-03-02T03:15:24.471Z,21.48
2024-03-02T03:17:54.153Z,23.02
2024-03-02T03:20:24.874Z,21.20
2024-03-02T03:22:57.236Z,20.90
2024-03-02T03:25:26.948Z,21.23
2024-03-02T03:27:56.641Z,20.00
2024-03-02T03:30:26.572Z,18.85
2024-03-02T03:32:56.261Z,19.80
2024-03-02T03:35:26.319Z,21.88
2024-03-02T03:37:58.622Z,20.95
2024-03-02T03:40:28.444Z,21.80
2024-03-02T03:42:58.288Z,18.17
2024-03-02T03:45:28.627Z,20.23
2024-03-02T03:47:58.705Z,15.23
2024-03-02T03:50:28.410Z,14.48
2024-03-02T03:53:00.630Z,18.75
2024-03-02T03:55:30.418Z,16.70
2024-03-02T03:58:00.386Z,18.83
2024-03-02T04:00:30.161Z,19.85
2024-03-02T04:02:59.886Z,18.70
2024-03-02T04:05:29.504Z,24.10
2024-03-02T04:08:01.989Z,18.67
2024-03-02T04:10:31.705Z,20.63
2024-03-02T04:13:01.429Z,16.33
2024-03-02T04:15:31.162Z,16.42
2024-03-02T04:18:00.897Z,18.30
2024-03-02T04:20:31.160Z,18.88
2024-03-02T04:23:03.739Z,22.10
2024-03-02T04:25:33.477Z,17.10
2024-03-02T04:28:03.182Z,15.85
2024-03-02T04:30:32.931Z,17.05
2024-03-02T04:33:03.854Z,15.88
2024-03-02T04:35:33.608Z,13.05
2024-03-02T04:38:05.922Z,18.10
2024-03-02T04:40:35.996Z,16.23
2024-03-02T04:43:05.680Z,18.10
2024-03-02T04:45:35.449Z,17.55
2024-03-02T04:48:05.590Z,14.52
2024-03-02T04:50:35.213Z,16.48
2024-03-02T04:53:10.436Z,16.40
2024-03-02T04:56:05.172Z,14.35
2024-03-02T04:58:34.923Z,17.80
2024-03-02T05:01:04.707Z,15.55
2024-03-02T05:03:36.198Z,15.40
2024-03-02T05:06:10.082Z,16.83
2024-03-02T05:08:42.371Z,16.13
2024-03-02T05:11:24.569Z,15.57
2024-03-02T05:13:54.274Z,12.85
2024-03-02T05:16:23.898Z,15.57
2024-03-02T05:18:53.638Z,14.93
2024-03-02T05:21:23.520Z,15.95
2024-03-02T05:23:55.859Z,12.65
2024-03-02T05:26:25.508Z,13.48
2024-03-02T05:28:55.156Z,12.85
2024-03-02T05:31:24.782Z,11.50
2024-03-02T05:33:57.679Z,13.23
2024-03-02T05:36:28.166Z,15.23
2024-03-02T05:39:00.442Z,16.30
2024-03-02T05:41:30.204Z,13.40
2024-03-02T05:43:59.832Z,13.70
2024-03-02T05:46:29.482Z,13.45
2024-03-02T05:49:01.774Z,16.55
2024-03-02T05:51:31.930Z,18.73
2024-03-02T05:54:04.247Z,15.85
2024-03-02T05:56:34.134Z,13.05
2024-03-02T05:59:13.728Z,15.05
2024-03-02T06:01:44.245Z,13.13
2024-03-02T06:04:14.909Z,18.45
2024-03-02T06:06:44.869Z,21.95
2024-03-02T06:09:17.612Z,15.13
2024-03-02T06:11:47.353Z,15.93
2024-03-02T06:14:17.058Z,17.20
2024-03-02T06:16:46.710Z,13.85
2024-03-02T06:19:16.554Z,20.48
2024-03-02T06:21:46.224Z,20.55
2024-03-02T06:24:18.562Z,20.38
2024-03-02T06:26:48.296Z,15.13
2024-03-02T06:29:17.928Z,17.75
2024-03-02T06:31:47.624Z,15.77
2024-03-02T06:34:17.283Z,15.85
2024-03-02T06:36:46.934Z,16.60
2024-03-02T06:39:19.242Z,15.98
2024-03-02T06:41:49.140Z,19.02
2024-03-02T06:44:18.757Z,16.15
2024-03-02T06:46:48.358Z,13.57
2024-03-02T06:49:19.316Z,16.65
2024-03-02T06:51:49.216Z,17.40
2024-03-02T06:54:21.652Z,16.67
2024-03-02T06:56:51.377Z,15.38
2024-03-02T06:59:20.992Z,14.90
2024-03-02T07:01:50.671Z,16.33
2024-03-02T07:04:20.302Z,11.88
2024-03-02T07:06:49.945Z,13.52
2024-03-02T07:09:24.386Z,17.17
2024-03-02T07:11:54.121Z,16.52
2024-03-02T07:14:38.779Z,11.25
2024-03-02T07:17:08.443Z,16.30
2024-03-02T07:19:38.076Z,13.50
2024-03-02T07:22:10.651Z,15.52
2024-03-02T07:24:47.063Z,12.85
2024-03-02T07:27:17.005Z,11.40
2024-03-02T07:29:46.808Z,13.82
2024-03-02T07:32:16.497Z,18.00
2024-03-02T07:34:46.165Z,11.80
2024-03-02T07:37:15.896Z,12.25
2024-03-02T07:39:48.311Z,12.43
2024-03-02T07:42:18.163Z,15.07
2024-03-02T07:44:47.907Z,13.82
2024-03-02T07:47:17.992Z,11.65
2024-03-02T07:49:48.526Z,12.85
2024-03-02T07:52:18.180Z,15.23
2024-03-02T07:54:50.495Z,16.02
2024-03-02T07:57:20.266Z,14.15
2024-03-02T07:59:50.442Z,11.80
2024-03-02T08:02:20.227Z,14.25
2024-03-02T08:04:50.029Z,12.57
2024-03-02T08:07:19.724Z,15.30
2024-03-02T08:09:51.997Z,12.60
2024-03-02T08:12:24.943Z,17.25
2024-03-02T08:14:54.702Z,12.93
2024-03-02T08:17:24.386Z,11.95
2024-03-02T08:19:54.139Z,14.85
2024-03-02T08:22:23.875Z,14.80
2024-03-02T08:24:56.339Z,14.52
2024-03-02T08:27:26.336Z,11.82
2024-03-02T08:29:56.007Z,12.30
2024-03-02T08:32:25.660Z,11.88
2024-03-02T08:34:55.310Z,12.70
2024-03-02T08:37:24.999Z,11.10
2024-03-02T08:39:57.478Z,15.70
2024-03-02T08:42:27.271Z,11.13
2024-03-02T08:44:56.952Z,12.40
2024-03-02T08:47:26.679Z,12.75
2024-03-02T08:49:57.960Z,14.13
2024-03-02T08:52:29.538Z,12.55
2024-03-02T08:55:01.871Z,12.23
2024-03-02T08:57:31.741Z,10.55
2024-03-02T09:00:01.540Z,15.00
2024-03-02T09:02:31.267Z,10.23
2024-03-02T09:05:01.071Z,12.70
2024-03-02T09:07:30.712Z,10.50
2024-03-02T09:10:03.166Z,9.80
2024-03-02T09:12:32.923Z,8.95
2024-03-02T09:15:02.910Z,10.05
2024-03-02T09:17:32.936Z,11.52
2024-03-02T09:20:02.578Z,9.75
2024-03-02T09:22:33.386Z,8.02
2024-03-02T09:25:05.788Z,8.88
2024-03-02T09:27:35.577Z,12.18
2024-03-02T09:30:06.292Z,7.97
2024-03-02T09:32:36.047Z,8.68
2024-03-02T09:35:05.774Z,9.52
2024-03-02T09:37:35.560Z,8.02
2024-03-02T09:40:08.458Z,7.78
2024-03-02T09:42:38.401Z,10.43
2024-03-02T09:45:09.213Z,6.68
2024-03-02T09:47:39.128Z,6.82
2024-03-02T09:50:09.576Z,8.25
2024-03-02T09:52:40.286Z,7.63
2024-03-02T09:55:16.866Z,6.43
2024-03-02T09:57:46.679Z,5.90
2024-03-02T10:00:17.230Z,10.43
2024-03-02T10:02:50.425Z,7.50
2024-03-02T10:05:30.215Z,5.88
2024-03-02T10:08:03.987Z,6.13
2024-03-02T10:10:44.886Z,7.00
2024-03-02T10:13:15.305Z,6.55
2024-03-02T10:15:45.162Z,6.03
2024-03-02T10:18:17.312Z,7.20
2024-03-02T10:20:47.092Z,5.82
2024-03-02T10:23:17.737Z,5.45
2024-03-02T10:25:55.264Z,8.95
2024-03-02T10:28:29.600Z,6.10
2024-03-02T10:30:59.460Z,5.90
2024-03-02T10:33:29.185Z,5.47
2024-03-02T10:35:58.846Z,5.32
2024-03-02T10:38:29.037Z,5.80
2024-03-02T10:41:02.177Z,6.30
2024-03-02T10:43:31.935Z,5.30
2024-03-02T10:46:02.698Z,6.10
2024-03-02T10:48:33.402Z,5.32
2024-03-02T10:51:03.954Z,5.70
2024-03-02T10:53:33.936Z,10.27
2024-03-02T10:56:08.600Z,5.32
2024-03-02T10:58:38.796Z,5.90
2024-03-02T11:01:09.976Z,5.85
2024-03-02T11:03:40.824Z,5.63
2024-03-02T11:06:11.934Z,6.85
2024-03-02T11:08:42.511Z,5.97
2024-03-02T11:11:18.254Z,6.45
2024-03-02T11:13:52.732Z,5.25
2024-03-02T11:16:28.703Z,5.88
2024-03-02T11:19:00.061Z,6.95
2024-03-02T11:21:30.339Z,5.43
2024-03-02T11:23:59.961Z,6.38
2024-03-02T11:26:32.263Z,5.93
2024-03-02T11:29:01.919Z,5.72
2024-03-02T11:31:46.383Z,6.03
2024-03-02T11:34:21.900Z,6.20
2024-03-02T11:36:51.759Z,5.93
2024-03-02T11:39:22.199Z,6.10
2024-03-02T11:41:55.972Z,6.10
2024-03-02T11:44:26.844Z,5.88
2024-03-02T11:46:57.584Z,6.15
2024-03-02T11:49:40.242Z,4.65
2024-03-02T11:52:11.024Z,6.35
2024-03-02T11:54:42.919Z,6.20
2024-03-02T11:57:15.287Z,7.57
2024-03-02T11:59:44.946Z,6.45
2024-03-02T12:02:21.344Z,6.28
2024-03-02T12:04:52.070Z,7.30
2024-03-02T12:07:22.878Z,6.32
2024-03-02T12:09:53.074Z,5.07
2024-03-02T12:12:25.474Z,5.60
2024-03-02T12:14:56.824Z,5.95
2024-03-02T12:17:26.741Z,5.13
2024-03-02T12:19:56.747Z,5.63
2024-03-02T12:22:28.440Z,5.35
2024-03-02T12:24:58.311Z,5.68
2024-03-02T12:27:30.748Z,5.55
2024-03-02T12:30:00.500Z,5.43
2024-03-02T12:32:30.200Z,5.03
2024-03-02T12:34:59.806Z,5.95
2024-03-02T12:37:29.588Z,5.43
2024-03-02T12:40:00.222Z,5.07
2024-03-02T12:42:32.670Z,5.03
2024-03-02T12:45:02.421Z,5.22
2024-03-02T12:47:32.151Z,4.78
2024-03-02T12:50:02.459Z,9.05
2024-03-02T12:52:33.623Z,5.07
2024-03-02T12:55:05.205Z,5.35
2024-03-02T12:57:39.094Z,5.13
2024-03-02T13:00:11.148Z,5.10
2024-03-02T13:02:40.975Z,5.18
2024-03-02T13:05:12.402Z,4.88
2024-03-02T13:07:42.587Z,5.82
2024-03-02T13:10:12.620Z,5.70
2024-03-02T13:12:44.901Z,4.90
2024-03-02T13:15:17.815Z,6.32
2024-03-02T13:17:48.967Z,6.47
2024-03-02T13:20:20.982Z,6.00
2024-03-02T13:22:51.441Z,6.57
2024-03-02T13:25:21.091Z,5.93
2024-03-02T13:27:53.491Z,5.32
2024-03-02T13:30:23.332Z,5.05
2024-03-02T13:32:54.487Z,5.88
2024-03-02T13:35:24.279Z,5.80
2024-03-02T13:37:54.011Z,6.03
2024-03-02T13:40:24.911Z,6.30
2024-03-02T13:42:57.286Z,5.55
2024-03-02T13:45:27.122Z,5.82
2024-03-02T13:47:57.006Z,8.20
2024-03-02T13:50:26.791Z,4.95
2024-03-02T13:52:56.439Z,6.15
2024-03-02T13:55:26.203Z,6.53
2024-03-02T13:57:58.778Z,6.18
2024-03-02T14:00:28.829Z,5.93
2024-03-02T14:02:58.485Z,5.70
2024-03-02T14:05:28.501Z,6.85
2024-03-02T14:08:01.747Z,6.82
2024-03-02T14:10:31.550Z,5.05
2024-03-02T14:13:03.885Z,7.97
2024-03-02T14:15:34.111Z,6.05
2024-03-02T14:18:03.898Z,6.32
2024-03-02T14:20:34.655Z,6.50
2024-03-02T14:23:04.510Z,5.93
2024-03-02T14:25:35.189Z,7.60
2024-03-02T14:28:26.775Z,5.45
2024-03-02T14:30:57.547Z,7.18
2024-03-02T14:33:27.230Z,7.40
2024-03-02T14:35:56.956Z,8.45
2024-03-02T14:38:26.681Z,6.05
2024-03-02T14:40:56.561Z,7.32
2024-03-02T14:43:29.212Z,7.65
2024-03-02T14:45:59.949Z,7.82
2024-03-02T14:48:29.815Z,6.25
2024-03-02T14:50:59.544Z,6.30
2024-03-02T14:53:32.279Z,8.32
2024-03-02T14:56:03.834Z,8.25
2024-03-02T14:58:36.811Z,8.52
2024-03-02T15:01:07.909Z,7.40
2024-03-02T15:03:37.834Z,11.10
2024-03-02T15:06:09.018Z,9.60
2024-03-02T15:08:38.730Z,13.63
2024-03-02T15:11:08.381Z,9.52
2024-03-02T15:13:40.743Z,12.30
2024-03-02T15:16:10.710Z,10.07
2024-03-02T15:18:40.499Z,10.18
2024-03-02T15:21:10.248Z,12.00
2024-03-02T15:23:39.948Z,11.27
2024-03-02T15:26:10.538Z,10.82
2024-03-02T15:28:42.965Z,9.77
2024-03-02T15:31:12.757Z,9.90
2024-03-02T15:33:42.576Z,10.23
2024-03-02T15:36:14.044Z,9.75
2024-03-02T15:38:43.999Z,8.88
2024-03-02T15:41:13.742Z,10.82
2024-03-02T15:43:46.043Z,8.55
2024-03-02T15:46:15.805Z,7.68
2024-03-02T15:48:45.566Z,11.05
2024-03-02T15:51:15.530Z,9.20
2024-03-02T15:53:45.243Z,9.40
2024-03-02T15:56:14.911Z,10.80
2024-03-02T15:58:47.257Z,11.27
2024-03-02T16:01:17.021Z,11.50
2024-03-02T16:03:48.755Z,10.88
2024-03-02T16:06:18.817Z,11.63
2024-03-02T16:08:48.478Z,12.85
2024-03-02T16:11:18.424Z,15.27
2024-03-02T16:13:50.839Z,14.55
2024-03-02T16:16:20.717Z,9.45
2024-03-02T16:18:50.448Z,18.17
2024-03-02T16:21:21.551Z,12.98
2024-03-02T16:23:51.273Z,10.27
2024-03-02T16:26:20.935Z,10.80
2024-03-02T16:28:53.292Z,13.43
2024-03-02T16:31:23.009Z,9.63
2024-03-02T16:33:53.145Z,15.15
2024-03-02T16:36:23.927Z,14.38
2024-03-02T16:38:54.654Z,13.07
2024-03-02T16:41:24.387Z,12.65
2024-03-02T16:43:56.694Z,13.02
2024-03-02T16:46:26.369Z,11.07
2024-03-02T16:48:56.014Z,12.65
2024-03-02T16:51:25.955Z,12.80
2024-03-02T16:53:55.661Z,11.35
2024-03-02T16:56:25.286Z,12.80
2024-03-02T16:58:57.587Z,15.10
2024-03-02T17:01:27.249Z,11.48
2024-03-02T17:03:56.934Z,14.27
2024-03-02T17:06:26.641Z,11.80
2024-03-02T17:08:56.456Z,14.05
2024-03-02T17:11:26.208Z,12.88
2024-03-02T17:13:59.401Z,11.32
2024-03-02T17:16:29.239Z,12.98
2024-03-02T17:18:59.166Z,11.45
2024-03-02T17:21:29.151Z,11.65
2024-03-02T17:23:59.591Z,14.05
2024-03-02T17:26:29.306Z,14.82
2024-03-02T17:29:01.696Z,13.80
2024-03-02T17:31:31.487Z,12.10
2024-03-02T17:34:01.613Z,14.38
2024-03-02T17:36:31.282Z,12.75
2024-03-02T17:39:00.894Z,10.68
2024-03-02T17:41:30.585Z,10.40
2024-03-02T17:44:02.838Z,10.20
2024-03-02T17:46:32.577Z,11.35
2024-03-02T17:49:02.605Z,9.40
2024-03-02T17:51:32.345Z,10.75
2024-03-02T17:54:02.097Z,9.25
2024-03-02T17:56:31.722Z,11.07
2024-03-02T17:59:05.118Z,9.10
2024-03-02T18:01:36.059Z,11.18
2024-03-02T18:04:09.651Z,12.80
2024-03-02T18:06:39.945Z,12.18
2024-03-02T18:09:09.800Z,9.73
2024-03-02T18:11:40.672Z,11.82
2024-03-02T18:14:13.059Z,12.45
2024-03-02T18:16:42.818Z,12.75
2024-03-02T18:19:12.527Z,10.85
2024-03-02T18:21:42.412Z,11.50
2024-03-02T18:24:12.483Z,9.23
2024-03-02T18:26:42.962Z,8.30
2024-03-02T18:29:18.056Z,8.95
2024-03-02T18:31:47.952Z,8.65
2024-03-02T18:34:17.870Z,8.98
2024-03-02T18:36:47.755Z,9.48
2024-03-02T18:39:17.462Z,10.90
2024-03-02T18:41:47.153Z,12.52
2024-03-02T18:44:19.896Z,9.65
2024-03-02T18:46:50.220Z,10.02
2024-03-02T18:49:20.002Z,14.88
2024-03-02T18:51:49.725Z,10.00
2024-03-02T18:54:20.258Z,8.20
2024-03-02T18:56:49.976Z,7.38
2024-03-02T18:59:22.428Z,9.57
2024-03-02T19:01:52.839Z,10.05
2024-03-02T19:04:22.766Z,8.10
2024-03-02T19:06:52.524Z,9.32
2024-03-02T19:09:22.332Z,8.07
2024-03-02T19:11:52.042Z,7.65
2024-03-02T19:14:24.299Z,9.27
2024-03-02T19:16:54.022Z,8.05
2024-03-02T19:19:23.638Z,10.05
2024-03-02T19:21:59.614Z,8.85
2024-03-02T19:24:38.880Z,6.95
2024-03-02T19:27:08.720Z,6.90
2024-03-02T19:29:41.033Z,7.60
2024-03-02T19:32:12.544Z,8.40
2024-03-02T19:34:44.861Z,8.57
2024-03-02T19:37:14.552Z,9.05
2024-03-02T19:39:44.915Z,8.75
2024-03-02T19:42:14.596Z,9.63
2024-03-02T19:44:46.882Z,10.10
2024-03-02T19:47:19.680Z,8.05
2024-03-02T19:49:49.835Z,8.48
2024-03-02T19:52:19.614Z,8.13
2024-03-02T19:54:50.627Z,9.52
2024-03-02T19:57:21.173Z,8.65
2024-03-02T19:59:53.578Z,10.82
2024-03-02T20:02:28.217Z,13.98
2024-03-02T20:04:58.800Z,7.53
2024-03-02T20:07:28.445Z,12.85
2024-03-02T20:09:58.137Z,7.60
2024-03-02T20:12:28.230Z,9.65
2024-03-02T20:15:00.793Z,12.73
2024-03-02T20:17:30.591Z,12.75
2024-03-02T20:20:00.312Z,12.35
2024-03-02T20:22:29.960Z,14.63
2024-03-02T20:24:59.724Z,14.93
2024-03-02T20:27:29.443Z,10.00
2024-03-02T20:30:01.913Z,14.55
2024-03-02T20:32:31.708Z,13.20
2024-03-02T20:35:01.469Z,11.88
2024-03-02T20:37:31.565Z,12.00
2024-03-02T20:40:01.760Z,12.23
2024-03-02T20:42:31.491Z,9.82
2024-03-02T20:45:04.547Z,10.07
2024-03-02T20:47:34.343Z,9.82
2024-03-02T20:50:04.202Z,11.02
2024-03-02T20:52:33.928Z,12.77
2024-03-02T20:55:03.733Z,10.68
2024-03-02T20:57:33.522Z,9.38
2024-03-02T21:00:08.458Z,9.20
2024-03-02T21:02:39.084Z,11.73
2024-03-02T21:05:09.502Z,10.98
2024-03-02T21:07:39.561Z,10.15
2024-03-02T21:10:10.169Z,9.15
2024-03-02T21:12:40.172Z,9.68
2024-03-02T21:15:13.123Z,11.73
2024-03-02T21:17:43.116Z,12.38
2024-03-02T21:20:13.964Z,13.15
2024-03-02T21:22:45.376Z,14.10
2024-03-02T21:25:17.442Z,27.80
2024-03-02T21:27:47.341Z,10.27
2024-03-02T21:30:20.083Z,9.55
2024-03-02T21:32:49.990Z,14.15
2024-03-02T21:35:20.261Z,11.32
2024-03-02T21:37:49.868Z,13.15
2024-03-02T21:40:20.564Z,15.60
2024-03-02T21:42:52.181Z,19.70
2024-03-02T21:45:24.737Z,16.05
2024-03-02T21:47:54.682Z,11.18
2024-03-02T21:50:27.837Z,10.15
2024-03-02T21:52:59.074Z,9.85
2024-03-02T21:55:28.791Z,10.82
2024-03-02T21:57:58.445Z,12.15
2024-03-02T22:00:30.761Z,11.65
2024-03-02T22:03:01.140Z,10.27
2024-03-02T22:05:30.874Z,10.02
2024-03-02T22:08:00.537Z,8.23
2024-03-02T22:10:33.245Z,9.05
2024-03-02T22:13:03.751Z,10.05
2024-03-02T22:15:36.115Z,8.57
2024-03-02T22:18:05.932Z,12.05
2024-03-02T22:20:35.595Z,11.10
2024-03-02T22:23:05.279Z,8.88
2024-03-02T22:25:36.346Z,11.45
2024-03-02T22:28:06.166Z,10.27
2024-03-02T22:30:38.513Z,8.75
2024-03-02T22:33:08.604Z,9.95
2024-03-02T22:35:38.337Z,9.60
2024-03-02T22:38:08.136Z,10.93
2024-03-02T22:40:38.102Z,9.75
2024-03-02T22:43:08.100Z,12.20
2024-03-02T22:45:40.495Z,12.52
2024-03-02T22:48:11.003Z,10.07
2024-03-02T22:50:40.712Z,8.63
2024-03-02T22:53:10.399Z,9.82
2024-03-02T22:55:40.094Z,10.23
2024-03-02T22:58:09.835Z,10.38
2024-03-02T23:00:49.561Z,10.88
2024-03-02T23:03:20.051Z,9.35
2024-03-02T23:05:49.866Z,10.77
2024-03-02T23:08:19.577Z,9.90
2024-03-02T23:10:49.538Z,10.77
2024-03-02T23:13:19.243Z,11.70
2024-03-02T23:15:51.577Z,13.00
2024-03-02T23:18:21.353Z,12.10
2024-03-02T23:20:51.009Z,13.10
2024-03-02T23:23:20.918Z,11.93
2024-03-02T23:25:48.292Z,11.88
2024-03-02T23:28:18.134Z,14.43
2024-03-02T23:30:47.835Z,13.10
2024-03-02T23:33:20.120Z,12.82
2024-03-02T23:35:49.906Z,10.73
2024-03-02T23:38:19.583Z,10.68
2024-03-02T23:41:08.998Z,10.02
2024-03-02T23:43:39.055Z,13.77
2024-03-02T23:46:09.659Z,13.18
2024-03-02T23:48:42.202Z,14.88
2024-03-02T23:51:12.037Z,10.75
2024-03-02T23:53:41.692Z,10.75
2024-03-02T23:56:12.689Z,14.40
2024-03-02T23:58:43.808Z,12.90
